Airfield :
LOGIN :

Register | Disclaimer

   EN    FR    IT 

 










Legend :    VFR   Marginal VFR   IFR   Intensive IFR   Very Intensive IFR
Visi :
Ceiling :
>= 8 km
>= 3000ft
5 to 8 km
1000 to 3000 ft
1500m to 5 km
500 to 1000 ft
800 to 1500m
200 to 500 ft
< 800m
< 200 ft
Symbols :   Thunderstorms  Fog  Heavy snow  Heavy precipitations  Wind > 20 kt
SIGMETs :     Misc.  Thunderstorms  Icing  Turbulence  Mountain Waves  Volcanic Ashes






- Airport Elevation : 16 ft
- IATA code : SDR


LEXJ - Santander Cantabria

CURRENT METAR :
  • 242300Z AUTO 10004KT 060V150 7000 NSC 16/13 Q1029

EXPIRED METARs :
  • 242230Z AUTO 08005KT 050V120 7000 NSC 16/12 Q1029
  • 242200Z AUTO 09005KT 050V140 8000 NSC 16/12 Q1029
  • 242130Z AUTO 08004KT 040V130 7000 NSC 16/12 Q1029
  • 242100Z AUTO 09007KT 050V140 7000 NSC 17/12 Q1029
  • 242030Z AUTO 09006KT 050V140 7000 FEW038 17/11 Q1029

TAF TAF LEXJ
Valid from the 24 at 21:00 until the 25 at 21:00 UTC


242000Z 2421/2521 12005KT CAVOK TX20/2513Z TN11/2506Z
BECMG 2509/2513 06010KT
BECMG 2518/2521 VRB03KT



MET'MAP, your aeronautical weather chart ! - Copyright ORBIFLY December 2007 - Disclaimer

ORBIFLY MET'MAP TEAM :

Programming & Development : Alexandra Zaïnal
Concept & original design : Baudouin d'Aumeries
Assistance for programming : Marc-Olivier Méhu
Technical & hardware support : Manuel Goepfert

Contact : metmap@orbifly.com




SOURCES & CREDITS :

   NOAA